sensor_id;sensor_type;location;lat;lon;timestamp;pressure;altitude;pressure_sealevel;temperature
59339;BMP280;45117;50.960;5.500;2022-12-07T00:02:21;100955.81;;;4.13
59339;BMP280;45117;50.960;5.500;2022-12-07T00:04:48;100957.03;;;4.15
59339;BMP280;45117;50.960;5.500;2022-12-07T00:07:15;100951.03;;;4.18
59339;BMP280;45117;50.960;5.500;2022-12-07T00:09:41;100955.22;;;4.19
59339;BMP280;45117;50.960;5.500;2022-12-07T00:12:08;100945.81;;;4.22
59339;BMP280;45117;50.960;5.500;2022-12-07T00:14:36;100939.72;;;4.21
59339;BMP280;45117;50.960;5.500;2022-12-07T00:17:02;100934.06;;;4.23
59339;BMP280;45117;50.960;5.500;2022-12-07T00:19:29;100929.09;;;4.21
59339;BMP280;45117;50.960;5.500;2022-12-07T00:21:55;100935.50;;;4.20
59339;BMP280;45117;50.960;5.500;2022-12-07T00:24:22;100932.44;;;4.18
59339;BMP280;45117;50.960;5.500;2022-12-07T00:26:48;100930.06;;;4.13
59339;BMP280;45117;50.960;5.500;2022-12-07T00:29:17;100933.38;;;4.10
59339;BMP280;45117;50.960;5.500;2022-12-07T00:31:45;100927.56;;;4.04
59339;BMP280;45117;50.960;5.500;2022-12-07T00:34:13;100925.06;;;3.96
59339;BMP280;45117;50.960;5.500;2022-12-07T00:36:40;100934.31;;;4.02
59339;BMP280;45117;50.960;5.500;2022-12-07T00:39:07;100927.22;;;4.06
59339;BMP280;45117;50.960;5.500;2022-12-07T00:41:34;100937.47;;;4.07
59339;BMP280;45117;50.960;5.500;2022-12-07T00:44:00;100933.03;;;4.12
59339;BMP280;45117;50.960;5.500;2022-12-07T00:46:27;100924.19;;;4.07
59339;BMP280;45117;50.960;5.500;2022-12-07T00:48:55;100930.38;;;4.12
59339;BMP280;45117;50.960;5.500;2022-12-07T00:51:24;100929.59;;;4.11
59339;BMP280;45117;50.960;5.500;2022-12-07T00:53:51;100936.03;;;4.10
59339;BMP280;45117;50.960;5.500;2022-12-07T00:56:19;100929.97;;;4.09
59339;BMP280;45117;50.960;5.500;2022-12-07T00:58:49;100923.19;;;4.12
59339;BMP280;45117;50.960;5.500;2022-12-07T01:01:16;100929.59;;;4.11
59339;BMP280;45117;50.960;5.500;2022-12-07T01:03:42;100924.75;;;4.13
59339;BMP280;45117;50.960;5.500;2022-12-07T01:06:14;100928.06;;;4.10
59339;BMP280;45117;50.960;5.500;2022-12-07T01:08:41;100926.28;;;4.14
59339;BMP280;45117;50.960;5.500;2022-12-07T01:11:09;100923.19;;;4.12
59339;BMP280;45117;50.960;5.500;2022-12-07T01:13:37;100923.63;;;4.14
59339;BMP280;45117;50.960;5.500;2022-12-07T01:16:06;100925.50;;;4.14
59339;BMP280;45117;50.960;5.500;2022-12-07T01:18:34;100925.50;;;4.14
59339;BMP280;45117;50.960;5.500;2022-12-07T01:21:02;100930.06;;;4.13
59339;BMP280;45117;50.960;5.500;2022-12-07T01:23:31;100927.72;;;4.12
59339;BMP280;45117;50.960;5.500;2022-12-07T01:25:58;100936.91;;;4.14
59339;BMP280;45117;50.960;5.500;2022-12-07T01:28:26;100932.72;;;4.13
59339;BMP280;45117;50.960;5.500;2022-12-07T01:30:57;100929.59;;;4.11
59339;BMP280;45117;50.960;5.500;2022-12-07T01:33:24;100932.63;;;4.09
59339;BMP280;45117;50.960;5.500;2022-12-07T01:35:50;100926.84;;;4.07
59339;BMP280;45117;50.960;5.500;2022-12-07T01:38:17;100930.63;;;4.06
59339;BMP280;45117;50.960;5.500;2022-12-07T01:40:44;100926.44;;;4.05
59339;BMP280;45117;50.960;5.500;2022-12-07T01:43:15;100924.81;;;4.01
59339;BMP280;45117;50.960;5.500;2022-12-07T01:45:43;100924.44;;;4.02
59339;BMP280;45117;50.960;5.500;2022-12-07T01:48:12;100925.56;;;4.01
59339;BMP280;45117;50.960;5.500;2022-12-07T01:50:40;100926.69;;;4.00
59339;BMP280;45117;50.960;5.500;2022-12-07T01:53:09;100924.34;;;3.99
59339;BMP280;45117;50.960;5.500;2022-12-07T01:55:38;100923.50;;;3.95
59339;BMP280;45117;50.960;5.500;2022-12-07T01:58:08;100931.16;;;3.96
59339;BMP280;45117;50.960;5.500;2022-12-07T02:00:35;100926.16;;;3.95
59339;BMP280;45117;50.960;5.500;2022-12-07T02:03:06;100922.03;;;3.97
59339;BMP280;45117;50.960;5.500;2022-12-07T02:05:34;100917.88;;;3.96
59339;BMP280;45117;50.960;5.500;2022-12-07T02:08:01;100908.03;;;3.97
59339;BMP280;45117;50.960;5.500;2022-12-07T02:10:30;100917.50;;;3.98
59339;BMP280;45117;50.960;5.500;2022-12-07T02:12:58;100908.69;;;3.94
59339;BMP280;45117;50.960;5.500;2022-12-07T02:15:35;100918.66;;;3.97
59339;BMP280;45117;50.960;5.500;2022-12-07T02:18:09;100918.19;;;3.95
59339;BMP280;45117;50.960;5.500;2022-12-07T02:20:46;100918.97;;;3.95
59339;BMP280;45117;50.960;5.500;2022-12-07T02:23:40;100915.13;;;3.93
59339;BMP280;45117;50.960;5.500;2022-12-07T02:26:26;100909.81;;;3.93
59339;BMP280;45117;50.960;5.500;2022-12-07T02:29:13;100911.34;;;3.94
59339;BMP280;45117;50.960;5.500;2022-12-07T02:31:45;100912.88;;;3.95
59339;BMP280;45117;50.960;5.500;2022-12-07T02:34:17;100908.34;;;3.95
59339;BMP280;45117;50.960;5.500;2022-12-07T02:36:49;100915.22;;;3.96
59339;BMP280;45117;50.960;5.500;2022-12-07T02:39:20;100914.44;;;3.96
59339;BMP280;45117;50.960;5.500;2022-12-07T02:41:52;100912.13;;;3.94
59339;BMP280;45117;50.960;5.500;2022-12-07T02:44:24;100901.41;;;3.91
59339;BMP280;45117;50.960;5.500;2022-12-07T02:46:54;100908.34;;;3.95
59339;BMP280;45117;50.960;5.500;2022-12-07T02:49:22;100908.34;;;3.95
59339;BMP280;45117;50.960;5.500;2022-12-07T02:51:50;100905.69;;;3.95
59339;BMP280;45117;50.960;5.500;2022-12-07T02:54:20;100914.44;;;3.96
59339;BMP280;45117;50.960;5.500;2022-12-07T02:56:49;100908.03;;;3.97
59339;BMP280;45117;50.960;5.500;2022-12-07T02:59:28;100913.41;;;4.00
59339;BMP280;45117;50.960;5.500;2022-12-07T03:02:04;100904.31;;;4.01
59339;BMP280;45117;50.960;5.500;2022-12-07T03:04:40;100908.50;;;4.02
59339;BMP280;45117;50.960;5.500;2022-12-07T03:07:16;100907.41;;;4.03
59339;BMP280;45117;50.960;5.500;2022-12-07T03:09:50;100908.16;;;4.04
59339;BMP280;45117;50.960;5.500;2022-12-07T03:12:20;100902.78;;;4.00
59339;BMP280;45117;50.960;5.500;2022-12-07T03:14:52;100905.50;;;4.04
59339;BMP280;45117;50.960;5.500;2022-12-07T03:17:24;100906.31;;;4.04
59339;BMP280;45117;50.960;5.500;2022-12-07T03:19:55;100909.38;;;4.06
59339;BMP280;45117;50.960;5.500;2022-12-07T03:22:23;100912.38;;;4.05
59339;BMP280;45117;50.960;5.500;2022-12-07T03:24:53;100907.50;;;4.07
59339;BMP280;45117;50.960;5.500;2022-12-07T03:27:24;100909.72;;;4.05
59339;BMP280;45117;50.960;5.500;2022-12-07T03:29:56;100901.41;;;4.06
59339;BMP280;45117;50.960;5.500;2022-12-07T03:32:27;100909.03;;;4.08
59339;BMP280;45117;50.960;5.500;2022-12-07T03:34:59;100909.47;;;4.10
59339;BMP280;45117;50.960;5.500;2022-12-07T03:37:32;100913.25;;;4.09
59339;BMP280;45117;50.960;5.500;2022-12-07T03:40:03;100914.78;;;4.10
59339;BMP280;45117;50.960;5.500;2022-12-07T03:42:33;100911.00;;;4.11
59339;BMP280;45117;50.960;5.500;2022-12-07T03:45:02;100906.47;;;4.12
59339;BMP280;45117;50.960;5.500;2022-12-07T03:47:33;100898.19;;;4.13
59339;BMP280;45117;50.960;5.500;2022-12-07T03:50:05;100898.50;;;4.12
59339;BMP280;45117;50.960;5.500;2022-12-07T03:52:38;100905.34;;;4.13
59339;BMP280;45117;50.960;5.500;2022-12-07T03:55:09;100896.53;;;4.08
59339;BMP280;45117;50.960;5.500;2022-12-07T03:57:37;100896.63;;;4.12
59339;BMP280;45117;50.960;5.500;2022-12-07T04:00:09;100908.81;;;4.13
59339;BMP280;45117;50.960;5.500;2022-12-07T04:02:37;100895.53;;;4.13
59339;BMP280;45117;50.960;5.500;2022-12-07T04:05:04;100887.88;;;4.12
59339;BMP280;45117;50.960;5.500;2022-12-07T04:07:31;100890.13;;;4.09
59339;BMP280;45117;50.960;5.500;2022-12-07T04:09:57;100888.91;;;4.07
59339;BMP280;45117;50.960;5.500;2022-12-07T04:12:24;100889.69;;;4.07
59339;BMP280;45117;50.960;5.500;2022-12-07T04:14:50;100879.41;;;4.06
59339;BMP280;45117;50.960;5.500;2022-12-07T04:17:18;100894.66;;;4.09
59339;BMP280;45117;50.960;5.500;2022-12-07T04:19:45;100890.44;;;4.08
59339;BMP280;45117;50.960;5.500;2022-12-07T04:22:11;100888.13;;;4.06
59339;BMP280;45117;50.960;5.500;2022-12-07T04:24:38;100894.13;;;4.03
59339;BMP280;45117;50.960;5.500;2022-12-07T04:27:05;100894.88;;;4.04
59339;BMP280;45117;50.960;5.500;2022-12-07T04:29:31;100898.34;;;4.04
59339;BMP280;45117;50.960;5.500;2022-12-07T04:31:58;100895.34;;;4.06
59339;BMP280;45117;50.960;5.500;2022-12-07T04:34:26;100889.56;;;4.04
59339;BMP280;45117;50.960;5.500;2022-12-07T04:36:52;100897.22;;;4.05
59339;BMP280;45117;50.960;5.500;2022-12-07T04:39:21;100904.06;;;4.06
59339;BMP280;45117;50.960;5.500;2022-12-07T04:41:48;100907.94;;;4.09
59339;BMP280;45117;50.960;5.500;2022-12-07T04:44:15;100901.41;;;4.06
59339;BMP280;45117;50.960;5.500;2022-12-07T04:46:42;100899.88;;;4.05
59339;BMP280;45117;50.960;5.500;2022-12-07T04:49:09;100896.78;;;4.03
59339;BMP280;45117;50.960;5.500;2022-12-07T04:51:37;100898.00;;;4.06
59339;BMP280;45117;50.960;5.500;2022-12-07T04:54:04;100899.44;;;4.03
59339;BMP280;45117;50.960;5.500;2022-12-07T04:56:31;100894.47;;;4.02
59339;BMP280;45117;50.960;5.500;2022-12-07T04:58:57;100892.59;;;4.02
59339;BMP280;45117;50.960;5.500;2022-12-07T05:01:24;100888.72;;;4.00
59339;BMP280;45117;50.960;5.500;2022-12-07T05:03:50;100886.50;;;4.02
59339;BMP280;45117;50.960;5.500;2022-12-07T05:06:17;100886.50;;;4.02
59339;BMP280;45117;50.960;5.500;2022-12-07T05:08:45;100891.81;;;4.02
59339;BMP280;45117;50.960;5.500;2022-12-07T05:11:12;100884.19;;;4.00
59339;BMP280;45117;50.960;5.500;2022-12-07T05:14:00;100885.75;;;4.01
59339;BMP280;45117;50.960;5.500;2022-12-07T05:16:27;100891.91;;;4.05
59339;BMP280;45117;50.960;5.500;2022-12-07T05:18:53;100889.25;;;4.05
59339;BMP280;45117;50.960;5.500;2022-12-07T05:21:20;100894.22;;;4.07
59339;BMP280;45117;50.960;5.500;2022-12-07T05:23:48;100891.56;;;4.07
59339;BMP280;45117;50.960;5.500;2022-12-07T05:26:14;100899.13;;;4.05
59339;BMP280;45117;50.960;5.500;2022-12-07T05:28:41;100895.69;;;4.04
59339;BMP280;45117;50.960;5.500;2022-12-07T05:31:07;100891.06;;;4.01
59339;BMP280;45117;50.960;5.500;2022-12-07T05:33:34;100884.53;;;3.99
59339;BMP280;45117;50.960;5.500;2022-12-07T05:36:00;100892.09;;;3.97
59339;BMP280;45117;50.960;5.500;2022-12-07T05:38:30;100889.75;;;3.95
59339;BMP280;45117;50.960;5.500;2022-12-07T05:41:01;100891.66;;;3.95
59339;BMP280;45117;50.960;5.500;2022-12-07T05:43:27;100887.09;;;3.95
59339;BMP280;45117;50.960;5.500;2022-12-07T05:45:54;100892.75;;;3.94
59339;BMP280;45117;50.960;5.500;2022-12-07T05:48:21;100888.91;;;3.91
59339;BMP280;45117;50.960;5.500;2022-12-07T05:50:47;100888.03;;;3.87
59339;BMP280;45117;50.960;5.500;2022-12-07T05:53:15;100883.84;;;3.86
59339;BMP280;45117;50.960;5.500;2022-12-07T05:55:41;100882.31;;;3.85
59339;BMP280;45117;50.960;5.500;2022-12-07T05:58:09;100875.56;;;3.88
59339;BMP280;45117;50.960;5.500;2022-12-07T06:00:54;100881.53;;;3.84
59339;BMP280;45117;50.960;5.500;2022-12-07T06:03:21;100876.22;;;3.84
59339;BMP280;45117;50.960;5.500;2022-12-07T06:05:47;100880.41;;;3.86
59339;BMP280;45117;50.960;5.500;2022-12-07T06:08:14;100881.44;;;3.81
59339;BMP280;45117;50.960;5.500;2022-12-07T06:10:41;100880.97;;;3.79
59339;BMP280;45117;50.960;5.500;2022-12-07T06:13:09;100897.78;;;3.83
59339;BMP280;45117;50.960;5.500;2022-12-07T06:15:35;100889.81;;;3.83
59339;BMP280;45117;50.960;5.500;2022-12-07T06:18:02;100891.69;;;3.82
59339;BMP280;45117;50.960;5.500;2022-12-07T06:20:28;100894.34;;;3.82
59339;BMP280;45117;50.960;5.500;2022-12-07T06:22:55;100897.78;;;3.83
59339;BMP280;45117;50.960;5.500;2022-12-07T06:25:21;100893.59;;;3.82
59339;BMP280;45117;50.960;5.500;2022-12-07T06:27:48;100895.47;;;3.81
59339;BMP280;45117;50.960;5.500;2022-12-07T06:30:16;100904.09;;;3.78
59339;BMP280;45117;50.960;5.500;2022-12-07T06:32:42;100901.91;;;3.80
59339;BMP280;45117;50.960;5.500;2022-12-07T06:35:09;100896.59;;;3.80
59339;BMP280;45117;50.960;5.500;2022-12-07T06:37:35;100895.06;;;3.79
59339;BMP280;45117;50.960;5.500;2022-12-07T06:40:02;100889.75;;;3.79
59339;BMP280;45117;50.960;5.500;2022-12-07T06:42:29;100891.59;;;3.79
59339;BMP280;45117;50.960;5.500;2022-12-07T06:44:55;100888.94;;;3.79
59339;BMP280;45117;50.960;5.500;2022-12-07T06:47:23;100893.50;;;3.78
59339;BMP280;45117;50.960;5.500;2022-12-07T06:49:49;100890.06;;;3.78
59339;BMP280;45117;50.960;5.500;2022-12-07T06:52:16;100890.16;;;3.81
59339;BMP280;45117;50.960;5.500;2022-12-07T06:54:42;100887.16;;;3.83
59339;BMP280;45117;50.960;5.500;2022-12-07T06:57:10;100892.31;;;3.76
59339;BMP280;45117;50.960;5.500;2022-12-07T06:59:36;100896.91;;;3.79
59339;BMP280;45117;50.960;5.500;2022-12-07T07:02:03;100890.41;;;3.76
59339;BMP280;45117;50.960;5.500;2022-12-07T07:04:31;100880.97;;;3.79
59339;BMP280;45117;50.960;5.500;2022-12-07T07:06:57;100883.22;;;3.77
59339;BMP280;45117;50.960;5.500;2022-12-07T07:09:24;100888.47;;;3.73
59339;BMP280;45117;50.960;5.500;2022-12-07T07:11:51;100885.88;;;3.77
59339;BMP280;45117;50.960;5.500;2022-12-07T07:14:17;100892.22;;;3.72
59339;BMP280;45117;50.960;5.500;2022-12-07T07:16:44;100894.88;;;3.72
59339;BMP280;45117;50.960;5.500;2022-12-07T07:19:11;100889.81;;;3.67
59339;BMP280;45117;50.960;5.500;2022-12-07T07:21:39;100895.22;;;3.71
59339;BMP280;45117;50.960;5.500;2022-12-07T07:24:06;100895.53;;;3.69
59339;BMP280;45117;50.960;5.500;2022-12-07T07:26:32;100891.25;;;3.65
59339;BMP280;45117;50.960;5.500;2022-12-07T07:28:59;100898.00;;;3.62
59339;BMP280;45117;50.960;5.500;2022-12-07T07:31:25;100905.97;;;3.62
59339;BMP280;45117;50.960;5.500;2022-12-07T07:33:52;100892.63;;;3.58
59339;BMP280;45117;50.960;5.500;2022-12-07T07:36:18;100895.28;;;3.58
59339;BMP280;45117;50.960;5.500;2022-12-07T07:38:46;100890.28;;;3.57
59339;BMP280;45117;50.960;5.500;2022-12-07T07:41:12;100893.63;;;3.54
59339;BMP280;45117;50.960;5.500;2022-12-07T07:43:39;100898.94;;;3.54
59339;BMP280;45117;50.960;5.500;2022-12-07T07:46:05;100895.75;;;3.48
59339;BMP280;45117;50.960;5.500;2022-12-07T07:48:32;100897.88;;;3.43
59339;BMP280;45117;50.960;5.500;2022-12-07T07:50:59;100906.06;;;3.38
59339;BMP280;45117;50.960;5.500;2022-12-07T07:53:25;100905.63;;;3.36
59339;BMP280;45117;50.960;5.500;2022-12-07T07:55:54;100907.41;;;3.31
59339;BMP280;45117;50.960;5.500;2022-12-07T07:58:20;100906.53;;;3.27
59339;BMP280;45117;50.960;5.500;2022-12-07T08:00:47;100909.63;;;3.29
59339;BMP280;45117;50.960;5.500;2022-12-07T08:03:13;100917.88;;;3.40
59339;BMP280;45117;50.960;5.500;2022-12-07T08:05:40;100911.91;;;3.43
59339;BMP280;45117;50.960;5.500;2022-12-07T08:08:07;100909.38;;;3.47
59339;BMP280;45117;50.960;5.500;2022-12-07T08:10:33;100907.56;;;3.51
59339;BMP280;45117;50.960;5.500;2022-12-07T08:13:02;100918.59;;;3.53
59339;BMP280;45117;50.960;5.500;2022-12-07T08:15:40;100915.28;;;3.56
59339;BMP280;45117;50.960;5.500;2022-12-07T08:18:06;100913.50;;;3.60
59339;BMP280;45117;50.960;5.500;2022-12-07T08:20:34;100915.91;;;3.65
59339;BMP280;45117;50.960;5.500;2022-12-07T08:23:01;100919.44;;;3.69
59339;BMP280;45117;50.960;5.500;2022-12-07T08:25:29;100916.19;;;3.76
59339;BMP280;45117;50.960;5.500;2022-12-07T08:27:55;100918.03;;;3.88
59339;BMP280;45117;50.960;5.500;2022-12-07T08:30:23;100909.81;;;3.93
59339;BMP280;45117;50.960;5.500;2022-12-07T08:32:50;100918.28;;;3.98
59339;BMP280;45117;50.960;5.500;2022-12-07T08:35:17;100921.53;;;4.07
59339;BMP280;45117;50.960;5.500;2022-12-07T08:37:43;100924.28;;;4.11
59339;BMP280;45117;50.960;5.500;2022-12-07T08:40:11;100917.91;;;4.00
59339;BMP280;45117;50.960;5.500;2022-12-07T08:42:40;100923.97;;;3.97
59339;BMP280;45117;50.960;5.500;2022-12-07T08:45:09;100921.78;;;4.02
59339;BMP280;45117;50.960;5.500;2022-12-07T08:47:40;100923.50;;;3.95
59339;BMP280;45117;50.960;5.500;2022-12-07T08:50:08;100927.28;;;3.94
59339;BMP280;45117;50.960;5.500;2022-12-07T08:52:37;100926.44;;;4.05
59339;BMP280;45117;50.960;5.500;2022-12-07T08:55:04;100929.03;;;4.18
59339;BMP280;45117;50.960;5.500;2022-12-07T08:57:33;100922.25;;;4.36
59339;BMP280;45117;50.960;5.500;2022-12-07T09:00:01;100918.72;;;4.48
59339;BMP280;45117;50.960;5.500;2022-12-07T09:02:27;100923.94;;;4.44
59339;BMP280;45117;50.960;5.500;2022-12-07T09:04:55;100927.81;;;4.47
59339;BMP280;45117;50.960;5.500;2022-12-07T09:07:22;100914.44;;;4.43
59339;BMP280;45117;50.960;5.500;2022-12-07T09:09:48;100907.91;;;4.41
59339;BMP280;45117;50.960;5.500;2022-12-07T09:12:15;100914.38;;;4.55
59339;BMP280;45117;50.960;5.500;2022-12-07T09:14:41;100911.63;;;4.52
59339;BMP280;45117;50.960;5.500;2022-12-07T09:17:09;100916.28;;;4.58
59339;BMP280;45117;50.960;5.500;2022-12-07T09:19:36;100911.66;;;4.71
59339;BMP280;45117;50.960;5.500;2022-12-07T09:22:04;100920.22;;;5.00
59339;BMP280;45117;50.960;5.500;2022-12-07T09:24:31;100928.91;;;4.97
59339;BMP280;45117;50.960;5.500;2022-12-07T09:26:58;100920.16;;;4.96
59339;BMP280;45117;50.960;5.500;2022-12-07T09:29:24;100925.56;;;5.00
59339;BMP280;45117;50.960;5.500;2022-12-07T09:31:51;100931.50;;;5.12
59339;BMP280;45117;50.960;5.500;2022-12-07T09:34:18;100926.63;;;5.14
59339;BMP280;45117;50.960;5.500;2022-12-07T09:36:45;100921.84;;;5.04
59339;BMP280;45117;50.960;5.500;2022-12-07T09:39:13;100924.88;;;5.03
59339;BMP280;45117;50.960;5.500;2022-12-07T09:41:42;100929.50;;;5.06
59339;BMP280;45117;50.960;5.500;2022-12-07T09:44:11;100929.38;;;5.18
59339;BMP280;45117;50.960;5.500;2022-12-07T09:46:40;100926.53;;;5.30
59339;BMP280;45117;50.960;5.500;2022-12-07T09:49:11;100924.06;;;5.18
59339;BMP280;45117;50.960;5.500;2022-12-07T09:51:38;100918.56;;;5.30
59339;BMP280;45117;50.960;5.500;2022-12-07T09:54:04;100921.16;;;5.46
59339;BMP280;45117;50.960;5.500;2022-12-07T09:56:32;100924.97;;;5.68
59339;BMP280;45117;50.960;5.500;2022-12-07T09:59:00;100914.88;;;6.00
59339;BMP280;45117;50.960;5.500;2022-12-07T10:01:30;100914.84;;;6.19
59339;BMP280;45117;50.960;5.500;2022-12-07T10:04:02;100907.84;;;6.11
59339;BMP280;45117;50.960;5.500;2022-12-07T10:06:32;100911.91;;;6.28
59339;BMP280;45117;50.960;5.500;2022-12-07T10:08:59;100905.50;;;6.10
59339;BMP280;45117;50.960;5.500;2022-12-07T10:11:25;100911.47;;;6.26
59339;BMP280;45117;50.960;5.500;2022-12-07T10:13:53;100895.03;;;5.97
59339;BMP280;45117;50.960;5.500;2022-12-07T10:16:36;100900.63;;;6.12
59339;BMP280;45117;50.960;5.500;2022-12-07T10:19:23;100906.72;;;6.39
59339;BMP280;45117;50.960;5.500;2022-12-07T10:22:01;100906.59;;;6.28
59339;BMP280;45117;50.960;5.500;2022-12-07T10:24:28;100893.03;;;6.14
59339;BMP280;45117;50.960;5.500;2022-12-07T10:26:55;100889.09;;;6.04
59339;BMP280;45117;50.960;5.500;2022-12-07T10:29:27;100898.34;;;6.14
59339;BMP280;45117;50.960;5.500;2022-12-07T10:31:57;100886.97;;;5.90
59339;BMP280;45117;50.960;5.500;2022-12-07T10:34:25;100891.97;;;5.95
59339;BMP280;45117;50.960;5.500;2022-12-07T10:36:53;100883.53;;;5.90
59339;BMP280;45117;50.960;5.500;2022-12-07T10:39:21;100884.34;;;5.94
59339;BMP280;45117;50.960;5.500;2022-12-07T10:41:55;100886.09;;;6.09
59339;BMP280;45117;50.960;5.500;2022-12-07T10:44:25;100885.19;;;6.25
59339;BMP280;45117;50.960;5.500;2022-12-07T10:50:02;100874.72;;;6.39
59339;BMP280;45117;50.960;5.500;2022-12-07T10:52:54;100876.56;;;6.08
59339;BMP280;45117;50.960;5.500;2022-12-07T10:55:29;100868.47;;;6.01
59339;BMP280;45117;50.960;5.500;2022-12-07T10:58:12;100868.31;;;5.90
59339;BMP280;45117;50.960;5.500;2022-12-07T11:00:52;100857.25;;;5.88
59339;BMP280;45117;50.960;5.500;2022-12-07T11:03:30;100849.84;;;5.78
59339;BMP280;45117;50.960;5.500;2022-12-07T11:06:10;100850.72;;;5.63
59339;BMP280;45117;50.960;5.500;2022-12-07T11:08:51;100843.56;;;5.67
59339;BMP280;45117;50.960;5.500;2022-12-07T11:11:25;100851.06;;;5.61
59339;BMP280;45117;50.960;5.500;2022-12-07T11:14:01;100843.44;;;5.60
59339;BMP280;45117;50.960;5.500;2022-12-07T11:16:44;100834.44;;;5.68
59339;BMP280;45117;50.960;5.500;2022-12-07T11:19:24;100834.19;;;5.73
59339;BMP280;45117;50.960;5.500;2022-12-07T11:21:57;100831.72;;;5.87
59339;BMP280;45117;50.960;5.500;2022-12-07T11:24:27;100823.91;;;5.98
59339;BMP280;45117;50.960;5.500;2022-12-07T11:27:06;100824.56;;;6.18
59339;BMP280;45117;50.960;5.500;2022-12-07T11:29:51;100823.25;;;6.35
59339;BMP280;45117;50.960;5.500;2022-12-07T11:32:40;100812.78;;;6.45
59339;BMP280;45117;50.960;5.500;2022-12-07T11:35:16;100819.66;;;6.50
59339;BMP280;45117;50.960;5.500;2022-12-07T11:37:49;100810.44;;;6.44
59339;BMP280;45117;50.960;5.500;2022-12-07T11:40:22;100807.44;;;6.45
59339;BMP280;45117;50.960;5.500;2022-12-07T11:42:58;100811.25;;;6.44
59339;BMP280;45117;50.960;5.500;2022-12-07T11:45:27;100804.56;;;6.31
59339;BMP280;45117;50.960;5.500;2022-12-07T11:47:59;100809.50;;;6.29
59339;BMP280;45117;50.960;5.500;2022-12-07T11:50:32;100812.00;;;6.45
59339;BMP280;45117;50.960;5.500;2022-12-07T11:53:02;100805.84;;;6.41
59339;BMP280;45117;50.960;5.500;2022-12-07T11:55:37;100798.31;;;6.46
59339;BMP280;45117;50.960;5.500;2022-12-07T11:58:26;100801.38;;;6.48
59339;BMP280;45117;50.960;5.500;2022-12-07T12:01:11;100803.06;;;6.64
59339;BMP280;45117;50.960;5.500;2022-12-07T12:03:44;100797.44;;;6.39
59339;BMP280;45117;50.960;5.500;2022-12-07T12:06:11;100789.09;;;6.40
59339;BMP280;45117;50.960;5.500;2022-12-07T12:08:41;100793.81;;;6.54
59339;BMP280;45117;50.960;5.500;2022-12-07T12:11:19;100787.81;;;6.64
59339;BMP280;45117;50.960;5.500;2022-12-07T12:14:12;100789.34;;;6.62
59339;BMP280;45117;50.960;5.500;2022-12-07T12:17:12;100784.75;;;6.59
59339;BMP280;45117;50.960;5.500;2022-12-07T12:19:58;100782.06;;;6.59
59339;BMP280;45117;50.960;5.500;2022-12-07T12:22:32;100775.63;;;6.63
59339;BMP280;45117;50.960;5.500;2022-12-07T12:24:59;100776.06;;;6.69
59339;BMP280;45117;50.960;5.500;2022-12-07T12:27:27;100779.16;;;6.71
59339;BMP280;45117;50.960;5.500;2022-12-07T12:29:59;100770.75;;;6.69
59339;BMP280;45117;50.960;5.500;2022-12-07T12:32:34;100768.56;;;6.78
59339;BMP280;45117;50.960;5.500;2022-12-07T12:35:22;100768.97;;;6.80
59339;BMP280;45117;50.960;5.500;2022-12-07T12:37:53;100767.91;;;6.88
59339;BMP280;45117;50.960;5.500;2022-12-07T12:40:43;100763.63;;;6.80
59339;BMP280;45117;50.960;5.500;2022-12-07T12:43:48;100754.44;;;6.77
59339;BMP280;45117;50.960;5.500;2022-12-07T12:46:49;100757.09;;;6.77
59339;BMP280;45117;50.960;5.500;2022-12-07T12:49:34;100749.81;;;6.71
59339;BMP280;45117;50.960;5.500;2022-12-07T12:55:15;100756.09;;;6.89
59339;BMP280;45117;50.960;5.500;2022-12-07T12:57:45;100741.91;;;6.82
59339;BMP280;45117;50.960;5.500;2022-12-07T13:00:17;100741.31;;;6.95
59339;BMP280;45117;50.960;5.500;2022-12-07T13:02:48;100743.97;;;6.95
59339;BMP280;45117;50.960;5.500;2022-12-07T13:05:18;100733.91;;;6.82
59339;BMP280;45117;50.960;5.500;2022-12-07T13:08:00;100734.34;;;6.87
59339;BMP280;45117;50.960;5.500;2022-12-07T13:10:37;100734.34;;;6.84
59339;BMP280;45117;50.960;5.500;2022-12-07T13:13:28;100736.50;;;6.71
59339;BMP280;45117;50.960;5.500;2022-12-07T13:16:37;100734.94;;;6.73
59339;BMP280;45117;50.960;5.500;2022-12-07T13:25:21;100735.69;;;6.67
59339;BMP280;45117;50.960;5.500;2022-12-07T13:27:56;100732.19;;;6.59
59339;BMP280;45117;50.960;5.500;2022-12-07T13:30:25;100726.78;;;6.56
59339;BMP280;45117;50.960;5.500;2022-12-07T13:32:54;100729.78;;;6.50
59339;BMP280;45117;50.960;5.500;2022-12-07T13:35:32;100718.34;;;6.50
59339;BMP280;45117;50.960;5.500;2022-12-07T13:38:01;100712.19;;;6.42
59339;BMP280;45117;50.960;5.500;2022-12-07T13:40:28;100712.19;;;6.42
59339;BMP280;45117;50.960;5.500;2022-12-07T13:42:59;100707.59;;;6.43
59339;BMP280;45117;50.960;5.500;2022-12-07T13:45:29;100709.88;;;6.41
59339;BMP280;45117;50.960;5.500;2022-12-07T13:48:20;100703.31;;;6.35
59339;BMP280;45117;50.960;5.500;2022-12-07T13:50:53;100704.41;;;6.30
59339;BMP280;45117;50.960;5.500;2022-12-07T13:53:19;100699.41;;;6.25
59339;BMP280;45117;50.960;5.500;2022-12-07T13:55:47;100699.78;;;6.23
59339;BMP280;45117;50.960;5.500;2022-12-07T13:58:13;100700.09;;;6.18
59339;BMP280;45117;50.960;5.500;2022-12-07T14:00:42;100702.31;;;6.13
59339;BMP280;45117;50.960;5.500;2022-12-07T14:03:27;100696.16;;;6.09
59339;BMP280;45117;50.960;5.500;2022-12-07T14:06:14;100689.31;;;6.08
59339;BMP280;45117;50.960;5.500;2022-12-07T14:08:41;100690.66;;;5.94
59339;BMP280;45117;50.960;5.500;2022-12-07T14:11:13;100680.34;;;5.93
59339;BMP280;45117;50.960;5.500;2022-12-07T14:13:50;100684.59;;;5.97
59339;BMP280;45117;50.960;5.500;2022-12-07T14:16:23;100678.88;;;5.95
59339;BMP280;45117;50.960;5.500;2022-12-07T14:18:51;100676.56;;;5.94
59339;BMP280;45117;50.960;5.500;2022-12-07T14:21:20;100668.56;;;5.90
59339;BMP280;45117;50.960;5.500;2022-12-07T14:24:07;100676.13;;;5.88
59339;BMP280;45117;50.960;5.500;2022-12-07T14:26:34;100673.13;;;5.90
59339;BMP280;45117;50.960;5.500;2022-12-07T14:29:19;100676.50;;;5.87
59339;BMP280;45117;50.960;5.500;2022-12-07T14:31:47;100676.13;;;5.88
59339;BMP280;45117;50.960;5.500;2022-12-07T14:34:14;100672.72;;;5.91
59339;BMP280;45117;50.960;5.500;2022-12-07T14:36:40;100667.00;;;5.89
59339;BMP280;45117;50.960;5.500;2022-12-07T14:39:07;100665.72;;;5.80
59339;BMP280;45117;50.960;5.500;2022-12-07T14:41:33;100660.38;;;5.76